sensor_id;sensor_type;location;lat;lon;timestamp;P1;durP1;ratioP1;P2;durP2;ratioP2
51224;SDS011;37298;42.688;23.312;2023-07-29T00:02:24;6.60;;;2.55;;
51224;SDS011;37298;42.688;23.312;2023-07-29T00:04:50;4.80;;;2.40;;
51224;SDS011;37298;42.688;23.312;2023-07-29T00:07:16;4.85;;;2.65;;
51224;SDS011;37298;42.688;23.312;2023-07-29T00:09:43;2.58;;;2.20;;
51224;SDS011;37298;42.688;23.312;2023-07-29T00:12:09;6.00;;;3.33;;
51224;SDS011;37298;42.688;23.312;2023-07-29T00:14:35;3.33;;;2.20;;
51224;SDS011;37298;42.688;23.312;2023-07-29T00:17:01;4.75;;;2.40;;
51224;SDS011;37298;42.688;23.312;2023-07-29T00:19:27;4.03;;;2.70;;
51224;SDS011;37298;42.688;23.312;2023-07-29T00:21:54;3.22;;;2.60;;
51224;SDS011;37298;42.688;23.312;2023-07-29T00:24:20;3.53;;;2.55;;
51224;SDS011;37298;42.688;23.312;2023-07-29T00:26:47;4.30;;;2.88;;
51224;SDS011;37298;42.688;23.312;2023-07-29T00:29:14;4.38;;;2.72;;
51224;SDS011;37298;42.688;23.312;2023-07-29T00:31:40;4.90;;;3.08;;
51224;SDS011;37298;42.688;23.312;2023-07-29T00:34:07;4.80;;;2.70;;
51224;SDS011;37298;42.688;23.312;2023-07-29T00:36:33;4.45;;;2.75;;
51224;SDS011;37298;42.688;23.312;2023-07-29T00:38:59;6.35;;;2.80;;
51224;SDS011;37298;42.688;23.312;2023-07-29T00:41:25;5.80;;;3.22;;
51224;SDS011;37298;42.688;23.312;2023-07-29T00:43:53;4.70;;;3.00;;
51224;SDS011;37298;42.688;23.312;2023-07-29T00:46:20;7.43;;;3.15;;
51224;SDS011;37298;42.688;23.312;2023-07-29T00:48:46;5.57;;;2.80;;
51224;SDS011;37298;42.688;23.312;2023-07-29T00:51:12;4.63;;;2.50;;
51224;SDS011;37298;42.688;23.312;2023-07-29T00:53:39;4.55;;;2.63;;
51224;SDS011;37298;42.688;23.312;2023-07-29T00:56:06;5.75;;;3.17;;
51224;SDS011;37298;42.688;23.312;2023-07-29T00:58:32;4.28;;;3.03;;
51224;SDS011;37298;42.688;23.312;2023-07-29T01:00:59;5.18;;;2.92;;
51224;SDS011;37298;42.688;23.312;2023-07-29T01:03:26;3.90;;;2.63;;
51224;SDS011;37298;42.688;23.312;2023-07-29T01:05:56;3.42;;;2.20;;
51224;SDS011;37298;42.688;23.312;2023-07-29T01:08:27;5.13;;;2.97;;
51224;SDS011;37298;42.688;23.312;2023-07-29T01:10:57;3.75;;;2.97;;
51224;SDS011;37298;42.688;23.312;2023-07-29T01:13:26;3.85;;;2.92;;
51224;SDS011;37298;42.688;23.312;2023-07-29T01:15:54;3.40;;;2.40;;
51224;SDS011;37298;42.688;23.312;2023-07-29T01:18:22;5.05;;;2.88;;
51224;SDS011;37298;42.688;23.312;2023-07-29T01:20:49;5.00;;;2.60;;
51224;SDS011;37298;42.688;23.312;2023-07-29T01:23:23;4.93;;;2.75;;
51224;SDS011;37298;42.688;23.312;2023-07-29T01:25:50;3.40;;;2.67;;
51224;SDS011;37298;42.688;23.312;2023-07-29T01:28:16;3.13;;;2.25;;
51224;SDS011;37298;42.688;23.312;2023-07-29T01:30:42;4.63;;;2.90;;
51224;SDS011;37298;42.688;23.312;2023-07-29T01:33:11;5.82;;;2.30;;
51224;SDS011;37298;42.688;23.312;2023-07-29T01:35:40;4.85;;;2.90;;
51224;SDS011;37298;42.688;23.312;2023-07-29T01:38:09;6.97;;;3.13;;
51224;SDS011;37298;42.688;23.312;2023-07-29T01:40:38;4.88;;;3.03;;
51224;SDS011;37298;42.688;23.312;2023-07-29T01:43:06;4.68;;;2.60;;
51224;SDS011;37298;42.688;23.312;2023-07-29T01:45:33;6.43;;;2.90;;
51224;SDS011;37298;42.688;23.312;2023-07-29T01:48:03;5.03;;;2.83;;
51224;SDS011;37298;42.688;23.312;2023-07-29T01:50:29;3.58;;;2.33;;
51224;SDS011;37298;42.688;23.312;2023-07-29T01:52:57;4.10;;;2.75;;
51224;SDS011;37298;42.688;23.312;2023-07-29T01:55:23;5.05;;;3.00;;
51224;SDS011;37298;42.688;23.312;2023-07-29T01:57:51;3.28;;;2.35;;
51224;SDS011;37298;42.688;23.312;2023-07-29T02:00:18;3.13;;;2.75;;
51224;SDS011;37298;42.688;23.312;2023-07-29T02:02:45;4.10;;;3.00;;
51224;SDS011;37298;42.688;23.312;2023-07-29T02:05:11;4.25;;;3.10;;
51224;SDS011;37298;42.688;23.312;2023-07-29T02:07:37;6.85;;;2.90;;
51224;SDS011;37298;42.688;23.312;2023-07-29T02:10:04;5.32;;;3.13;;
51224;SDS011;37298;42.688;23.312;2023-07-29T02:12:30;4.57;;;2.78;;
51224;SDS011;37298;42.688;23.312;2023-07-29T02:14:57;5.82;;;2.97;;
51224;SDS011;37298;42.688;23.312;2023-07-29T02:17:24;4.38;;;3.00;;
51224;SDS011;37298;42.688;23.312;2023-07-29T02:19:52;4.85;;;2.78;;
51224;SDS011;37298;42.688;23.312;2023-07-29T02:22:18;4.95;;;3.25;;
51224;SDS011;37298;42.688;23.312;2023-07-29T02:24:44;5.15;;;2.42;;
51224;SDS011;37298;42.688;23.312;2023-07-29T02:27:11;7.28;;;3.20;;
51224;SDS011;37298;42.688;23.312;2023-07-29T02:29:38;5.07;;;3.50;;
51224;SDS011;37298;42.688;23.312;2023-07-29T02:32:05;5.28;;;3.40;;
51224;SDS011;37298;42.688;23.312;2023-07-29T02:34:31;3.90;;;2.83;;
51224;SDS011;37298;42.688;23.312;2023-07-29T02:36:57;5.22;;;3.55;;
51224;SDS011;37298;42.688;23.312;2023-07-29T02:39:24;5.75;;;3.35;;
51224;SDS011;37298;42.688;23.312;2023-07-29T02:41:50;6.68;;;3.90;;
51224;SDS011;37298;42.688;23.312;2023-07-29T02:44:16;6.38;;;3.50;;
51224;SDS011;37298;42.688;23.312;2023-07-29T02:46:42;4.47;;;2.83;;
51224;SDS011;37298;42.688;23.312;2023-07-29T02:49:09;8.48;;;2.80;;
51224;SDS011;37298;42.688;23.312;2023-07-29T02:51:36;4.03;;;2.72;;
51224;SDS011;37298;42.688;23.312;2023-07-29T02:54:02;4.20;;;2.42;;
51224;SDS011;37298;42.688;23.312;2023-07-29T02:56:28;3.75;;;3.08;;
51224;SDS011;37298;42.688;23.312;2023-07-29T02:58:56;6.80;;;3.10;;
51224;SDS011;37298;42.688;23.312;2023-07-29T03:01:22;4.55;;;2.90;;
51224;SDS011;37298;42.688;23.312;2023-07-29T03:03:50;3.75;;;3.00;;
51224;SDS011;37298;42.688;23.312;2023-07-29T03:06:18;3.75;;;3.03;;
51224;SDS011;37298;42.688;23.312;2023-07-29T03:08:44;4.17;;;3.10;;
51224;SDS011;37298;42.688;23.312;2023-07-29T03:11:12;4.15;;;3.20;;
51224;SDS011;37298;42.688;23.312;2023-07-29T03:13:41;8.57;;;2.85;;
51224;SDS011;37298;42.688;23.312;2023-07-29T03:16:07;4.55;;;3.33;;
51224;SDS011;37298;42.688;23.312;2023-07-29T03:18:34;4.63;;;2.97;;
51224;SDS011;37298;42.688;23.312;2023-07-29T03:21:01;4.63;;;3.15;;
51224;SDS011;37298;42.688;23.312;2023-07-29T03:23:28;4.00;;;3.20;;
51224;SDS011;37298;42.688;23.312;2023-07-29T03:25:55;5.10;;;3.63;;
51224;SDS011;37298;42.688;23.312;2023-07-29T03:28:23;9.68;;;3.20;;
51224;SDS011;37298;42.688;23.312;2023-07-29T03:30:49;3.97;;;3.33;;
51224;SDS011;37298;42.688;23.312;2023-07-29T03:33:16;5.03;;;3.30;;
51224;SDS011;37298;42.688;23.312;2023-07-29T03:35:42;4.82;;;3.42;;
51224;SDS011;37298;42.688;23.312;2023-07-29T03:38:10;4.15;;;3.05;;
51224;SDS011;37298;42.688;23.312;2023-07-29T03:40:37;5.85;;;3.08;;
51224;SDS011;37298;42.688;23.312;2023-07-29T03:43:04;4.72;;;3.20;;
51224;SDS011;37298;42.688;23.312;2023-07-29T03:45:30;5.35;;;3.08;;
51224;SDS011;37298;42.688;23.312;2023-07-29T03:47:57;5.47;;;3.42;;
51224;SDS011;37298;42.688;23.312;2023-07-29T03:50:23;6.53;;;3.30;;
51224;SDS011;37298;42.688;23.312;2023-07-29T03:52:49;4.88;;;3.35;;
51224;SDS011;37298;42.688;23.312;2023-07-29T03:55:15;6.47;;;3.10;;
51224;SDS011;37298;42.688;23.312;2023-07-29T03:57:43;4.88;;;3.42;;
51224;SDS011;37298;42.688;23.312;2023-07-29T04:00:10;4.68;;;3.38;;
51224;SDS011;37298;42.688;23.312;2023-07-29T04:02:41;5.30;;;3.30;;
51224;SDS011;37298;42.688;23.312;2023-07-29T04:05:08;14.45;;;6.15;;
51224;SDS011;37298;42.688;23.312;2023-07-29T04:07:34;5.60;;;4.22;;
51224;SDS011;37298;42.688;23.312;2023-07-29T04:10:01;8.40;;;3.63;;
51224;SDS011;37298;42.688;23.312;2023-07-29T04:12:27;7.90;;;3.35;;
51224;SDS011;37298;42.688;23.312;2023-07-29T04:14:54;4.53;;;2.83;;
51224;SDS011;37298;42.688;23.312;2023-07-29T04:17:21;4.18;;;2.97;;
51224;SDS011;37298;42.688;23.312;2023-07-29T04:19:55;5.45;;;3.67;;
51224;SDS011;37298;42.688;23.312;2023-07-29T04:22:25;4.70;;;3.28;;
51224;SDS011;37298;42.688;23.312;2023-07-29T04:24:52;7.90;;;3.25;;
51224;SDS011;37298;42.688;23.312;2023-07-29T04:27:18;4.53;;;3.05;;
51224;SDS011;37298;42.688;23.312;2023-07-29T04:29:44;5.15;;;3.38;;
51224;SDS011;37298;42.688;23.312;2023-07-29T04:32:12;6.82;;;3.33;;
51224;SDS011;37298;42.688;23.312;2023-07-29T04:34:41;7.22;;;3.90;;
51224;SDS011;37298;42.688;23.312;2023-07-29T04:37:07;4.85;;;3.35;;
51224;SDS011;37298;42.688;23.312;2023-07-29T04:39:34;5.35;;;3.45;;
51224;SDS011;37298;42.688;23.312;2023-07-29T04:42:00;6.63;;;3.58;;
51224;SDS011;37298;42.688;23.312;2023-07-29T04:44:26;5.78;;;3.85;;
51224;SDS011;37298;42.688;23.312;2023-07-29T04:46:52;3.95;;;3.03;;
51224;SDS011;37298;42.688;23.312;2023-07-29T04:49:19;5.40;;;3.30;;
51224;SDS011;37298;42.688;23.312;2023-07-29T04:51:46;7.57;;;3.55;;
51224;SDS011;37298;42.688;23.312;2023-07-29T04:54:12;4.20;;;3.40;;
51224;SDS011;37298;42.688;23.312;2023-07-29T04:56:39;5.30;;;3.20;;
51224;SDS011;37298;42.688;23.312;2023-07-29T04:59:05;6.38;;;3.25;;
51224;SDS011;37298;42.688;23.312;2023-07-29T05:01:34;4.55;;;3.30;;
51224;SDS011;37298;42.688;23.312;2023-07-29T05:04:00;5.50;;;3.70;;
51224;SDS011;37298;42.688;23.312;2023-07-29T05:06:28;6.25;;;3.88;;
51224;SDS011;37298;42.688;23.312;2023-07-29T05:08:56;6.78;;;3.72;;
51224;SDS011;37298;42.688;23.312;2023-07-29T05:11:23;5.63;;;3.53;;
51224;SDS011;37298;42.688;23.312;2023-07-29T05:13:50;8.45;;;3.80;;
51224;SDS011;37298;42.688;23.312;2023-07-29T05:16:17;5.47;;;3.15;;
51224;SDS011;37298;42.688;23.312;2023-07-29T05:18:44;6.55;;;3.40;;
51224;SDS011;37298;42.688;23.312;2023-07-29T05:21:10;6.63;;;3.88;;
51224;SDS011;37298;42.688;23.312;2023-07-29T05:23:40;6.28;;;3.60;;
51224;SDS011;37298;42.688;23.312;2023-07-29T05:26:07;6.25;;;3.95;;
51224;SDS011;37298;42.688;23.312;2023-07-29T05:28:33;5.10;;;3.45;;
51224;SDS011;37298;42.688;23.312;2023-07-29T05:31:00;9.43;;;3.30;;
51224;SDS011;37298;42.688;23.312;2023-07-29T05:33:27;5.47;;;3.30;;
51224;SDS011;37298;42.688;23.312;2023-07-29T05:35:53;5.88;;;3.30;;
51224;SDS011;37298;42.688;23.312;2023-07-29T05:38:20;7.07;;;4.22;;
51224;SDS011;37298;42.688;23.312;2023-07-29T05:40:48;7.55;;;3.97;;
51224;SDS011;37298;42.688;23.312;2023-07-29T05:43:15;4.35;;;3.35;;
51224;SDS011;37298;42.688;23.312;2023-07-29T05:45:41;16.88;;;4.40;;
51224;SDS011;37298;42.688;23.312;2023-07-29T05:48:07;8.32;;;4.10;;
51224;SDS011;37298;42.688;23.312;2023-07-29T05:50:33;6.90;;;3.85;;
51224;SDS011;37298;42.688;23.312;2023-07-29T05:53:00;7.20;;;3.38;;
51224;SDS011;37298;42.688;23.312;2023-07-29T05:55:26;8.05;;;4.03;;
51224;SDS011;37298;42.688;23.312;2023-07-29T05:57:53;6.25;;;3.53;;
51224;SDS011;37298;42.688;23.312;2023-07-29T06:00:20;7.45;;;3.92;;
51224;SDS011;37298;42.688;23.312;2023-07-29T06:02:46;4.90;;;3.20;;
51224;SDS011;37298;42.688;23.312;2023-07-29T06:05:16;4.15;;;3.50;;
51224;SDS011;37298;42.688;23.312;2023-07-29T06:07:43;10.55;;;3.13;;
51224;SDS011;37298;42.688;23.312;2023-07-29T06:10:12;4.35;;;3.67;;
51224;SDS011;37298;42.688;23.312;2023-07-29T06:12:38;5.03;;;4.07;;
51224;SDS011;37298;42.688;23.312;2023-07-29T06:15:06;6.90;;;3.35;;
51224;SDS011;37298;42.688;23.312;2023-07-29T06:17:32;4.70;;;3.20;;
51224;SDS011;37298;42.688;23.312;2023-07-29T06:19:58;4.03;;;3.13;;
51224;SDS011;37298;42.688;23.312;2023-07-29T06:22:25;4.28;;;3.05;;
51224;SDS011;37298;42.688;23.312;2023-07-29T06:24:52;3.90;;;3.10;;
51224;SDS011;37298;42.688;23.312;2023-07-29T06:27:18;5.97;;;3.65;;
51224;SDS011;37298;42.688;23.312;2023-07-29T06:29:44;5.30;;;3.97;;
51224;SDS011;37298;42.688;23.312;2023-07-29T06:32:11;3.63;;;2.97;;
51224;SDS011;37298;42.688;23.312;2023-07-29T06:34:38;4.20;;;3.05;;
51224;SDS011;37298;42.688;23.312;2023-07-29T06:37:04;4.10;;;3.00;;
51224;SDS011;37298;42.688;23.312;2023-07-29T06:39:30;4.85;;;2.80;;
51224;SDS011;37298;42.688;23.312;2023-07-29T06:41:57;4.60;;;3.00;;
51224;SDS011;37298;42.688;23.312;2023-07-29T06:44:23;3.70;;;3.10;;
51224;SDS011;37298;42.688;23.312;2023-07-29T06:46:49;4.65;;;2.95;;
51224;SDS011;37298;42.688;23.312;2023-07-29T06:49:16;5.97;;;3.08;;
51224;SDS011;37298;42.688;23.312;2023-07-29T06:51:43;5.05;;;3.65;;
51224;SDS011;37298;42.688;23.312;2023-07-29T06:54:09;5.60;;;3.58;;
51224;SDS011;37298;42.688;23.312;2023-07-29T06:56:35;6.13;;;3.30;;
51224;SDS011;37298;42.688;23.312;2023-07-29T06:59:02;3.97;;;3.08;;
51224;SDS011;37298;42.688;23.312;2023-07-29T07:01:29;4.18;;;3.45;;
51224;SDS011;37298;42.688;23.312;2023-07-29T07:03:55;8.55;;;3.53;;
51224;SDS011;37298;42.688;23.312;2023-07-29T07:06:24;8.32;;;3.45;;
51224;SDS011;37298;42.688;23.312;2023-07-29T07:08:50;5.18;;;3.20;;
51224;SDS011;37298;42.688;23.312;2023-07-29T07:11:17;8.23;;;3.35;;
51224;SDS011;37298;42.688;23.312;2023-07-29T07:13:44;5.85;;;3.20;;
51224;SDS011;37298;42.688;23.312;2023-07-29T07:16:10;7.93;;;3.95;;
51224;SDS011;37298;42.688;23.312;2023-07-29T07:18:36;5.18;;;3.13;;
51224;SDS011;37298;42.688;23.312;2023-07-29T07:21:03;6.50;;;3.70;;
51224;SDS011;37298;42.688;23.312;2023-07-29T07:23:30;8.02;;;4.05;;
51224;SDS011;37298;42.688;23.312;2023-07-29T07:25:56;8.65;;;4.13;;
51224;SDS011;37298;42.688;23.312;2023-07-29T07:28:22;8.95;;;4.28;;
51224;SDS011;37298;42.688;23.312;2023-07-29T07:30:49;8.82;;;4.32;;
51224;SDS011;37298;42.688;23.312;2023-07-29T07:33:15;5.00;;;4.00;;
51224;SDS011;37298;42.688;23.312;2023-07-29T07:35:41;6.65;;;4.28;;
51224;SDS011;37298;42.688;23.312;2023-07-29T07:38:08;7.00;;;4.28;;
51224;SDS011;37298;42.688;23.312;2023-07-29T07:40:36;6.78;;;4.50;;
51224;SDS011;37298;42.688;23.312;2023-07-29T07:43:02;7.85;;;5.07;;
51224;SDS011;37298;42.688;23.312;2023-07-29T07:45:28;7.35;;;4.30;;
51224;SDS011;37298;42.688;23.312;2023-07-29T07:47:55;8.00;;;4.40;;
51224;SDS011;37298;42.688;23.312;2023-07-29T07:50:21;7.07;;;4.15;;
51224;SDS011;37298;42.688;23.312;2023-07-29T07:52:49;9.00;;;4.43;;
51224;SDS011;37298;42.688;23.312;2023-07-29T07:55:15;7.00;;;4.05;;
51224;SDS011;37298;42.688;23.312;2023-07-29T07:57:43;31.35;;;14.95;;
51224;SDS011;37298;42.688;23.312;2023-07-29T08:00:09;20.77;;;9.50;;
51224;SDS011;37298;42.688;23.312;2023-07-29T08:02:39;5.53;;;3.88;;
51224;SDS011;37298;42.688;23.312;2023-07-29T08:05:05;5.22;;;3.08;;
51224;SDS011;37298;42.688;23.312;2023-07-29T08:07:31;7.88;;;3.80;;
51224;SDS011;37298;42.688;23.312;2023-07-29T08:09:57;8.27;;;3.45;;
51224;SDS011;37298;42.688;23.312;2023-07-29T08:12:24;12.48;;;7.78;;
51224;SDS011;37298;42.688;23.312;2023-07-29T08:14:51;6.57;;;3.55;;
51224;SDS011;37298;42.688;23.312;2023-07-29T08:17:17;21.67;;;11.50;;
51224;SDS011;37298;42.688;23.312;2023-07-29T08:19:43;10.15;;;7.65;;
51224;SDS011;37298;42.688;23.312;2023-07-29T08:22:09;9.15;;;3.83;;
51224;SDS011;37298;42.688;23.312;2023-07-29T08:24:36;6.22;;;3.38;;
51224;SDS011;37298;42.688;23.312;2023-07-29T08:27:02;5.82;;;2.80;;
51224;SDS011;37298;42.688;23.312;2023-07-29T08:29:29;10.95;;;3.75;;
51224;SDS011;37298;42.688;23.312;2023-07-29T08:31:56;5.38;;;3.45;;
51224;SDS011;37298;42.688;23.312;2023-07-29T08:34:22;5.22;;;3.25;;
51224;SDS011;37298;42.688;23.312;2023-07-29T08:36:48;5.70;;;3.15;;
51224;SDS011;37298;42.688;23.312;2023-07-29T08:39:15;4.80;;;3.72;;
51224;SDS011;37298;42.688;23.312;2023-07-29T08:41:44;6.38;;;3.30;;
51224;SDS011;37298;42.688;23.312;2023-07-29T08:44:12;4.15;;;2.50;;
51224;SDS011;37298;42.688;23.312;2023-07-29T08:46:39;7.85;;;2.90;;
51224;SDS011;37298;42.688;23.312;2023-07-29T08:49:06;5.57;;;2.92;;
51224;SDS011;37298;42.688;23.312;2023-07-29T08:51:33;4.03;;;3.13;;
51224;SDS011;37298;42.688;23.312;2023-07-29T08:54:00;10.05;;;3.25;;
51224;SDS011;37298;42.688;23.312;2023-07-29T08:56:27;5.68;;;3.53;;
51224;SDS011;37298;42.688;23.312;2023-07-29T08:58:55;12.85;;;3.00;;
51224;SDS011;37298;42.688;23.312;2023-07-29T09:01:21;11.82;;;3.95;;
51224;SDS011;37298;42.688;23.312;2023-07-29T09:03:48;4.10;;;3.00;;
51224;SDS011;37298;42.688;23.312;2023-07-29T09:06:15;9.50;;;3.05;;
51224;SDS011;37298;42.688;23.312;2023-07-29T09:08:42;5.30;;;3.22;;
51224;SDS011;37298;42.688;23.312;2023-07-29T09:11:09;12.52;;;5.07;;
51224;SDS011;37298;42.688;23.312;2023-07-29T09:13:35;9.20;;;4.32;;
51224;SDS011;37298;42.688;23.312;2023-07-29T09:16:01;13.48;;;6.38;;
51224;SDS011;37298;42.688;23.312;2023-07-29T09:18:27;5.82;;;2.15;;
51224;SDS011;37298;42.688;23.312;2023-07-29T09:20:54;6.55;;;3.33;;
51224;SDS011;37298;42.688;23.312;2023-07-29T09:23:25;3.38;;;2.03;;
51224;SDS011;37298;42.688;23.312;2023-07-29T09:28:18;9.30;;;2.35;;
51224;SDS011;37298;42.688;23.312;2023-07-29T09:30:45;2.15;;;1.60;;
51224;SDS011;37298;42.688;23.312;2023-07-29T09:33:12;4.35;;;1.80;;
51224;SDS011;37298;42.688;23.312;2023-07-29T09:35:38;2.35;;;1.38;;
51224;SDS011;37298;42.688;23.312;2023-07-29T09:38:05;2.45;;;1.83;;
51224;SDS011;37298;42.688;23.312;2023-07-29T09:40:34;3.88;;;1.20;;
51224;SDS011;37298;42.688;23.312;2023-07-29T09:43:01;2.17;;;1.70;;
51224;SDS011;37298;42.688;23.312;2023-07-29T09:45:28;2.08;;;1.65;;
51224;SDS011;37298;42.688;23.312;2023-07-29T09:47:54;3.35;;;1.85;;
51224;SDS011;37298;42.688;23.312;2023-07-29T09:50:23;2.67;;;1.80;;
51224;SDS011;37298;42.688;23.312;2023-07-29T09:52:49;2.22;;;1.58;;
51224;SDS011;37298;42.688;23.312;2023-07-29T09:55:17;2.03;;;1.60;;
51224;SDS011;37298;42.688;23.312;2023-07-29T09:57:44;2.13;;;1.70;;
51224;SDS011;37298;42.688;23.312;2023-07-29T10:00:11;1.77;;;1.48;;
51224;SDS011;37298;42.688;23.312;2023-07-29T10:02:37;2.40;;;1.65;;
51224;SDS011;37298;42.688;23.312;2023-07-29T10:05:04;4.15;;;1.90;;
51224;SDS011;37298;42.688;23.312;2023-07-29T10:07:31;2.53;;;1.52;;
51224;SDS011;37298;42.688;23.312;2023-07-29T10:09:58;3.35;;;1.60;;
51224;SDS011;37298;42.688;23.312;2023-07-29T10:12:25;3.13;;;1.35;;
51224;SDS011;37298;42.688;23.312;2023-07-29T10:14:52;1.63;;;1.20;;
51224;SDS011;37298;42.688;23.312;2023-07-29T10:17:19;3.28;;;1.38;;
51224;SDS011;37298;42.688;23.312;2023-07-29T10:19:45;2.25;;;1.67;;
51224;SDS011;37298;42.688;23.312;2023-07-29T10:22:12;5.43;;;1.58;;
51224;SDS011;37298;42.688;23.312;2023-07-29T10:24:39;2.88;;;1.08;;
51224;SDS011;37298;42.688;23.312;2023-07-29T10:27:07;2.20;;;1.30;;
51224;SDS011;37298;42.688;23.312;2023-07-29T10:29:38;3.05;;;1.50;;
51224;SDS011;37298;42.688;23.312;2023-07-29T10:32:05;1.30;;;1.00;;
51224;SDS011;37298;42.688;23.312;2023-07-29T10:34:32;3.10;;;1.38;;
51224;SDS011;37298;42.688;23.312;2023-07-29T10:36:59;3.78;;;1.40;;
51224;SDS011;37298;42.688;23.312;2023-07-29T10:39:26;2.88;;;1.30;;
51224;SDS011;37298;42.688;23.312;2023-07-29T10:41:56;5.80;;;1.50;;
51224;SDS011;37298;42.688;23.312;2023-07-29T10:47:11;1.45;;;1.00;;
51224;SDS011;37298;42.688;23.312;2023-07-29T10:49:39;1.30;;;0.90;;
51224;SDS011;37298;42.688;23.312;2023-07-29T10:52:05;1.23;;;0.75;;
51224;SDS011;37298;42.688;23.312;2023-07-29T10:54:34;4.25;;;1.00;;
51224;SDS011;37298;42.688;23.312;2023-07-29T10:57:07;3.22;;;1.00;;
51224;SDS011;37298;42.688;23.312;2023-07-29T10:59:33;2.15;;;1.02;;
51224;SDS011;37298;42.688;23.312;2023-07-29T11:02:00;1.05;;;0.73;;
51224;SDS011;37298;42.688;23.312;2023-07-29T11:04:27;0.80;;;0.80;;
51224;SDS011;37298;42.688;23.312;2023-07-29T11:09:41;1.58;;;0.85;;
51224;SDS011;37298;42.688;23.312;2023-07-29T11:14:49;0.70;;;0.70;;
51224;SDS011;37298;42.688;23.312;2023-07-29T11:17:15;1.00;;;0.90;;
51224;SDS011;37298;42.688;23.312;2023-07-29T11:19:42;1.40;;;1.10;;
51224;SDS011;37298;42.688;23.312;2023-07-29T11:22:09;2.03;;;0.82;;
51224;SDS011;37298;42.688;23.312;2023-07-29T11:24:35;0.90;;;0.70;;
51224;SDS011;37298;42.688;23.312;2023-07-29T11:27:02;0.50;;;0.50;;
51224;SDS011;37298;42.688;23.312;2023-07-29T11:29:28;3.72;;;1.00;;
51224;SDS011;37298;42.688;23.312;2023-07-29T11:31:54;2.85;;;0.98;;
51224;SDS011;37298;42.688;23.312;2023-07-29T11:34:30;1.55;;;0.90;;
51224;SDS011;37298;42.688;23.312;2023-07-29T11:36:57;2.83;;;0.90;;
51224;SDS011;37298;42.688;23.312;2023-07-29T11:39:23;1.38;;;0.98;;
51224;SDS011;37298;42.688;23.312;2023-07-29T11:41:50;1.77;;;1.00;;
51224;SDS011;37298;42.688;23.312;2023-07-29T11:44:16;2.95;;;0.80;;
51224;SDS011;37298;42.688;23.312;2023-07-29T11:46:42;2.25;;;1.00;;
51224;SDS011;37298;42.688;23.312;2023-07-29T11:49:09;0.80;;;0.70;;
51224;SDS011;37298;42.688;23.312;2023-07-29T11:51:35;1.52;;;0.82;;
51224;SDS011;37298;42.688;23.312;2023-07-29T11:54:03;3.25;;;1.10;;
51224;SDS011;37298;42.688;23.312;2023-07-29T11:56:29;1.25;;;0.90;;
51224;SDS011;37298;42.688;23.312;2023-07-29T11:58:56;1.40;;;1.00;;
51224;SDS011;37298;42.688;23.312;2023-07-29T12:01:22;1.85;;;0.77;;
51224;SDS011;37298;42.688;23.312;2023-07-29T12:03:48;1.85;;;0.73;;
51224;SDS011;37298;42.688;23.312;2023-07-29T12:06:15;2.13;;;0.95;;
51224;SDS011;37298;42.688;23.312;2023-07-29T12:08:41;1.17;;;0.98;;
51224;SDS011;37298;42.688;23.312;2023-07-29T12:11:08;1.55;;;0.90;;
51224;SDS011;37298;42.688;23.312;2023-07-29T12:13:36;1.88;;;1.00;;
51224;SDS011;37298;42.688;23.312;2023-07-29T12:16:02;1.80;;;1.35;;
51224;SDS011;37298;42.688;23.312;2023-07-29T12:18:29;1.35;;;0.90;;
51224;SDS011;37298;42.688;23.312;2023-07-29T12:20:55;1.95;;;1.13;;
51224;SDS011;37298;42.688;23.312;2023-07-29T12:23:24;2.67;;;0.90;;
51224;SDS011;37298;42.688;23.312;2023-07-29T12:25:50;1.38;;;1.10;;
51224;SDS011;37298;42.688;23.312;2023-07-29T12:28:18;3.08;;;1.20;;
51224;SDS011;37298;42.688;23.312;2023-07-29T12:30:48;1.98;;;1.17;;
51224;SDS011;37298;42.688;23.312;2023-07-29T12:33:28;1.40;;;0.98;;
51224;SDS011;37298;42.688;23.312;2023-07-29T12:35:55;3.60;;;1.00;;
51224;SDS011;37298;42.688;23.312;2023-07-29T12:38:21;1.30;;;0.93;;
51224;SDS011;37298;42.688;23.312;2023-07-29T12:40:47;2.80;;;1.25;;
51224;SDS011;37298;42.688;23.312;2023-07-29T12:43:13;5.88;;;0.90;;
51224;SDS011;37298;42.688;23.312;2023-07-29T12:45:40;2.47;;;1.10;;
51224;SDS011;37298;42.688;23.312;2023-07-29T12:48:07;1.20;;;0.98;;
51224;SDS011;37298;42.688;23.312;2023-07-29T12:50:33;1.80;;;1.00;;
51224;SDS011;37298;42.688;23.312;2023-07-29T12:53:00;1.13;;;0.85;;
51224;SDS011;37298;42.688;23.312;2023-07-29T12:55:26;2.05;;;1.27;;
51224;SDS011;37298;42.688;23.312;2023-07-29T12:57:53;3.00;;;1.08;;
51224;SDS011;37298;42.688;23.312;2023-07-29T13:00:19;1.50;;;0.90;;
51224;SDS011;37298;42.688;23.312;2023-07-29T13:02:46;2.40;;;0.80;;
51224;SDS011;37298;42.688;23.312;2023-07-29T13:07:38;3.22;;;0.80;;
51224;SDS011;37298;42.688;23.312;2023-07-29T13:10:05;1.13;;;1.00;;
51224;SDS011;37298;42.688;23.312;2023-07-29T13:12:31;1.50;;;1.00;;
51224;SDS011;37298;42.688;23.312;2023-07-29T13:14:58;2.08;;;0.80;;
51224;SDS011;37298;42.688;23.312;2023-07-29T13:17:24;1.73;;;0.90;;
51224;SDS011;37298;42.688;23.312;2023-07-29T13:19:51;1.35;;;1.00;;
51224;SDS011;37298;42.688;23.312;2023-07-29T13:22:17;2.63;;;1.07;;
51224;SDS011;37298;42.688;23.312;2023-07-29T13:24:43;2.45;;;1.38;;
51224;SDS011;37298;42.688;23.312;2023-07-29T13:27:09;1.30;;;0.90;;
51224;SDS011;37298;42.688;23.312;2023-07-29T13:29:35;4.43;;;1.08;;
51224;SDS011;37298;42.688;23.312;2023-07-29T13:32:02;1.85;;;1.27;;
51224;SDS011;37298;42.688;23.312;2023-07-29T13:34:29;1.00;;;0.90;;
51224;SDS011;37298;42.688;23.312;2023-07-29T13:36:56;4.07;;;1.35;;
51224;SDS011;37298;42.688;23.312;2023-07-29T13:41:48;1.48;;;1.00;;
51224;SDS011;37298;42.688;23.312;2023-07-29T13:44:15;2.13;;;1.20;;
51224;SDS011;37298;42.688;23.312;2023-07-29T13:46:41;2.80;;;1.30;;
51224;SDS011;37298;42.688;23.312;2023-07-29T13:49:07;1.25;;;1.10;;
51224;SDS011;37298;42.688;23.312;2023-07-29T13:51:33;1.98;;;1.10;;
51224;SDS011;37298;42.688;23.312;2023-07-29T13:54:00;2.05;;;1.40;;
51224;SDS011;37298;42.688;23.312;2023-07-29T13:56:26;2.60;;;1.20;;
51224;SDS011;37298;42.688;23.312;2023-07-29T13:58:52;1.58;;;0.90;;
51224;SDS011;37298;42.688;23.312;2023-07-29T14:01:19;2.13;;;1.00;;
51224;SDS011;37298;42.688;23.312;2023-07-29T14:03:45;1.52;;;1.10;;
51224;SDS011;37298;42.688;23.312;2023-07-29T14:06:11;3.47;;;1.50;;
51224;SDS011;37298;42.688;23.312;2023-07-29T14:08:37;3.60;;;1.02;;
51224;SDS011;37298;42.688;23.312;2023-07-29T14:11:07;3.90;;;1.02;;
51224;SDS011;37298;42.688;23.312;2023-07-29T14:13:33;7.50;;;1.15;;
51224;SDS011;37298;42.688;23.312;2023-07-29T14:16:00;1.50;;;1.10;;
51224;SDS011;37298;42.688;23.312;2023-07-29T14:18:26;1.25;;;1.00;;
51224;SDS011;37298;42.688;23.312;2023-07-29T14:20:52;2.08;;;1.20;;
51224;SDS011;37298;42.688;23.312;2023-07-29T14:23:18;1.70;;;1.25;;
51224;SDS011;37298;42.688;23.312;2023-07-29T14:25:45;5.60;;;0.98;;
51224;SDS011;37298;42.688;23.312;2023-07-29T14:28:13;1.80;;;1.23;;
51224;SDS011;37298;42.688;23.312;2023-07-29T14:30:39;3.78;;;1.27;;
51224;SDS011;37298;42.688;23.312;2023-07-29T14:33:06;1.58;;;1.20;;
51224;SDS011;37298;42.688;23.312;2023-07-29T14:35:32;4.20;;;2.00;;
51224;SDS011;37298;42.688;23.312;2023-07-29T14:37:59;2.28;;;1.10;;
51224;SDS011;37298;42.688;23.312;2023-07-29T14:40:25;1.33;;;1.02;;
51224;SDS011;37298;42.688;23.312;2023-07-29T14:42:52;1.40;;;1.20;;
51224;SDS011;37298;42.688;23.312;2023-07-29T14:45:19;2.22;;;1.63;;
51224;SDS011;37298;42.688;23.312;2023-07-29T14:47:45;3.17;;;1.15;;